Bookmark and Share
Track history (hours):
 

Fehn Calais

Last reported at 2014-Apr-18 23:33 UTC. Time now 2014-Apr-19 00:16 UTC.
Position N 53°27' E 014°35'.

Length 83 m; draft 3 m.

Type: Ship. MMSI: 305009000.

NotesDate/timePositionNaut miles runAvg speedWind from/ knotsBaromVisibWave heightAir tempDewpointWater temp
2014-Apr-18 23:33N 53°27' E 014°35'0 0.0
2014-Apr-18 22:33N 53°27' E 014°35'0 0.0
2014-Apr-18 21:30N 53°27' E 014°35'0 0.0
2014-Apr-18 20:33N 53°27' E 014°35'0 0.0
2014-Apr-18 19:33N 53°27' E 014°35'0 0.0
2014-Apr-18 18:33N 53°27' E 014°35'0 0.0
2014-Apr-18 17:33N 53°27' E 014°35'8 5.5
2014-Apr-18 16:10N 53°34' E 014°36'5 8.5
2014-Apr-18 15:33N 53°39' E 014°33'9 9.0
2014-Apr-18 14:33N 53°46' E 014°23'8 8.3
2014-Apr-18 13:33N 53°53' E 014°16'8 8.0
2014-Apr-18 12:33N 54°01' E 014°15'9 9.2
2014-Apr-18 11:33N 54°10' E 014°12'8 7.6
2014-Apr-18 10:33N 54°17' E 014°05'7 7.3
2014-Apr-18 09:33N 54°22' E 013°56'8 7.8
2014-Apr-18 08:33N 54°29' E 013°49'8 7.7
2014-Apr-18 07:33N 54°35' E 013°43'8 7.6
2014-Apr-18 06:33N 54°40' E 013°32'7 6.9
2014-Apr-18 05:33N 54°43' E 013°21'8 7.6
2014-Apr-18 04:33N 54°42' E 013°08'8 7.6
2014-Apr-18 03:33N 54°41' E 012°55'7 7.3
2014-Apr-18 02:33N 54°39' E 012°43'8 7.5
2014-Apr-18 01:33N 54°36' E 012°31'8 7.6
2014-Apr-18 00:33N 54°32' E 012°20'7 7.3
2014-Apr-17 23:33N 54°26' E 012°13'7 6.8
2014-Apr-17 22:33N 54°24' E 012°02'8 7.5
2014-Apr-17 21:33N 54°24' E 011°49'7 7.5
2014-Apr-17 20:33N 54°27' E 011°37'8 8.0
2014-Apr-17 19:33N 54°30' E 011°24'8 8.2
2014-Apr-17 18:33N 54°34' E 011°12'  
2014-Apr-12 09:31N 54°35' E 011°14'7 7.1
2014-Apr-12 08:33N 54°32' E 011°25'8 8.4
2014-Apr-12 07:33N 54°29' E 011°38'7 7.5
2014-Apr-12 06:33N 54°27' E 011°50'7 7.2
2014-Apr-12 05:33N 54°27' E 012°03'7 6.8
2014-Apr-12 04:33N 54°31' E 012°11'8 8.1
2014-Apr-12 03:33N 54°38' E 012°18'8 8.6
2014-Apr-12 02:33N 54°43' E 012°31'9 8.7
2014-Apr-12 01:33N 54°47' E 012°44'8 8.4
2014-Apr-12 00:33N 54°52' E 012°56'8 8.3
2014-Apr-11 23:33N 54°56' E 013°08'5 5.3
2014-Apr-11 22:33N 55°01' E 013°13'0 0.0
2014-Apr-11 02:22N 55°01' E 013°13'  

Dump ship's entire track history

sailing weather and tide predictions

Fehn Calais — V2CI3 — position and weather